Time;durP1;ratioP1;P1;durP2;ratioP2;P2;SDS_P1;SDS_P2;PMS_P1;PMS_P2;Temp;Humidity;BMP_temperature;BMP_pressure;BME280_temperature;BME280_humidity;BME280_pressure;Samples;Min_cycle;Max_cycle;Signal;HPM_P1;HPM_P2
2022/01/19 00:02:24;;;;;;;8.48;6.78;;;;;;;;;;5052839;28;20056;-76
2022/01/19 00:04:49;;;;;;;10.63;7.15;;;;;;;;;;5040354;28;20108;-76
2022/01/19 00:07:14;;;;;;;8.27;6.97;;;;;;;;;;5053263;28;20050;-76
2022/01/19 00:09:40;;;;;;;11.48;7.63;;;;;;;;;;5053079;28;20372;-76
2022/01/19 00:12:06;;;;;;;8.90;6.88;;;;;;;;;;4987734;28;20388;-77
2022/01/19 00:14:31;;;;;;;9.15;7.43;;;;;;;;;;4987434;28;20488;-76
2022/01/19 00:16:56;;;;;;;9.70;7.18;;;;;;;;;;5003307;28;20111;-76
2022/01/19 00:19:22;;;;;;;11.00;7.72;;;;;;;;;;5036195;28;20446;-76
2022/01/19 00:21:47;;;;;;;7.70;6.63;;;;;;;;;;5036441;28;20430;-76
2022/01/19 00:24:13;;;;;;;9.68;7.32;;;;;;;;;;5020038;28;20045;-76
2022/01/19 00:26:38;;;;;;;11.50;7.75;;;;;;;;;;5003491;28;20045;-76
2022/01/19 00:29:04;;;;;;;9.25;7.53;;;;;;;;;;5036618;28;20048;-76
2022/01/19 00:31:29;;;;;;;7.90;6.72;;;;;;;;;;5033206;28;20029;-76
2022/01/19 00:33:55;;;;;;;11.80;8.00;;;;;;;;;;5006187;28;20033;-76
2022/01/19 00:36:20;;;;;;;10.27;7.53;;;;;;;;;;5049403;28;20414;-76
2022/01/19 00:38:46;;;;;;;9.90;7.72;;;;;;;;;;5016734;28;20392;-76
2022/01/19 00:41:11;;;;;;;9.48;7.78;;;;;;;;;;5008793;28;20029;-76
2022/01/19 00:43:37;;;;;;;10.05;7.32;;;;;;;;;;5030181;28;20381;-76
2022/01/19 00:46:03;;;;;;;8.88;6.82;;;;;;;;;;5016935;28;20369;-76
2022/01/19 00:48:29;;;;;;;9.73;7.20;;;;;;;;;;5016774;28;20103;-76
2022/01/19 00:50:56;;;;;;;8.27;7.13;;;;;;;;;;5016689;28;20045;-77
2022/01/19 00:53:21;;;;;;;8.65;7.13;;;;;;;;;;5032884;28;20052;-76
2022/01/19 00:55:47;;;;;;;9.02;7.35;;;;;;;;;;5032915;28;20037;-76
2022/01/19 00:58:12;;;;;;;9.48;7.45;;;;;;;;;;5032385;28;20046;-76
2022/01/19 01:00:38;;;;;;;9.80;7.30;;;;;;;;;;5012609;28;20038;-76
2022/01/19 01:03:04;;;;;;;9.13;7.60;;;;;;;;;;5029210;28;20048;-76
2022/01/19 01:05:30;;;;;;;8.38;7.00;;;;;;;;;;5016742;28;20402;-77
2022/01/19 01:07:55;;;;;;;9.63;8.10;;;;;;;;;;5000159;28;20038;-76
2022/01/19 01:10:21;;;;;;;11.40;7.50;;;;;;;;;;5032860;28;20104;-76
2022/01/19 01:12:49;;;;;;;8.45;7.55;;;;;;;;;;5032488;28;20369;-76
2022/01/19 01:20:33;;;;;;;9.73;7.35;;;;;;;;;;5017830;28;20087;-76
2022/01/19 01:22:58;;;;;;;8.50;7.45;;;;;;;;;;5016064;28;20511;-76
2022/01/19 01:25:24;;;;;;;9.95;7.43;;;;;;;;;;5032415;28;20036;-76
2022/01/19 01:27:50;;;;;;;9.65;7.72;;;;;;;;;;5016000;28;20034;-76
2022/01/19 01:30:15;;;;;;;10.02;7.68;;;;;;;;;;4999110;28;20034;-76
2022/01/19 01:32:41;;;;;;;8.98;6.20;;;;;;;;;;5015335;28;20029;-76
2022/01/19 01:35:07;;;;;;;8.00;6.40;;;;;;;;;;5012638;28;20108;-76
2022/01/19 01:37:32;;;;;;;8.55;6.63;;;;;;;;;;5023040;28;20037;-76
2022/01/19 01:39:58;;;;;;;8.13;6.20;;;;;;;;;;5015839;28;20127;-76
2022/01/19 01:42:24;;;;;;;9.15;6.88;;;;;;;;;;5015760;28;20030;-76
2022/01/19 01:44:52;;;;;;;9.18;7.25;;;;;;;;;;5015603;28;20148;-76
2022/01/19 01:47:19;;;;;;;8.43;6.45;;;;;;;;;;5031220;28;20515;-77
2022/01/19 01:55:00;;;;;;;7.78;6.25;;;;;;;;;;5060006;28;20488;-76
2022/01/19 01:57:26;;;;;;;9.40;6.70;;;;;;;;;;5014746;28;20139;-76
2022/01/19 01:59:51;;;;;;;8.35;7.18;;;;;;;;;;5015209;28;20025;-76
2022/01/19 02:02:17;;;;;;;8.48;6.75;;;;;;;;;;4998433;28;20033;-76
2022/01/19 02:04:42;;;;;;;7.80;6.82;;;;;;;;;;5031229;28;20083;-76
2022/01/19 02:09:37;;;;;;;9.25;7.60;;;;;;;;;;5014885;28;20188;-76
2022/01/19 02:23:07;;;;;;;10.70;7.47;;;;;;;;;;5012969;28;20033;-76
2022/01/19 02:25:35;;;;;;;7.47;6.53;;;;;;;;;;5015125;28;20029;-76
2022/01/19 02:31:23;;;;;;;9.27;6.38;;;;;;;;;;5025522;28;20034;-76
2022/01/19 02:36:50;;;;;;;7.78;6.32;;;;;;;;;;5031503;28;20036;-75
2022/01/19 02:42:04;;;;;;;7.80;6.55;;;;;;;;;;5049662;28;20403;-76
2022/01/19 02:46:30;;;;;;;9.65;6.10;;;;;;;;;;5014932;28;20037;-76
2022/01/19 02:49:44;;;;;;;7.90;5.97;;;;;;;;;;5031241;28;20115;-76
2022/01/19 02:52:09;;;;;;;7.47;5.88;;;;;;;;;;5047009;28;20030;-76
2022/01/19 02:54:35;;;;;;;7.18;5.65;;;;;;;;;;5030762;28;20033;-76
2022/01/19 02:57:02;;;;;;;7.68;5.93;;;;;;;;;;5030515;28;20029;-76
2022/01/19 02:59:59;;;;;;;7.63;5.45;;;;;;;;;;5030898;28;20029;-76
2022/01/19 03:10:36;;;;;;;6.75;4.95;;;;;;;;;;4997146;28;20461;-76
2022/01/19 03:13:01;;;;;;;6.35;4.72;;;;;;;;;;5010693;28;20476;-76
2022/01/19 03:15:28;;;;;;;7.22;5.05;;;;;;;;;;5013520;28;20034;-76
2022/01/19 03:17:58;;;;;;;6.80;5.10;;;;;;;;;;5030258;28;20104;-76
2022/01/19 03:20:23;;;;;;;7.10;5.00;;;;;;;;;;5030403;28;20041;-76
2022/01/19 03:23:13;;;;;;;5.53;4.78;;;;;;;;;;5013560;28;20143;-76
2022/01/19 03:25:39;;;;;;;7.03;4.28;;;;;;;;;;5029519;28;20619;-76
2022/01/19 03:28:05;;;;;;;5.18;4.50;;;;;;;;;;5013591;28;20041;-76
2022/01/19 03:30:30;;;;;;;6.13;4.28;;;;;;;;;;4978451;28;20029;-76
2022/01/19 03:32:56;;;;;;;5.22;4.53;;;;;;;;;;4994450;28;20041;-76
2022/01/19 03:35:22;;;;;;;6.40;4.38;;;;;;;;;;5008969;28;20029;-76
2022/01/19 03:37:48;;;;;;;4.97;3.80;;;;;;;;;;5030126;28;20037;-76
2022/01/19 03:40:13;;;;;;;5.47;3.78;;;;;;;;;;5030150;28;20034;-76
2022/01/19 03:42:39;;;;;;;6.20;4.45;;;;;;;;;;5029942;28;20441;-76
2022/01/19 03:45:06;;;;;;;5.18;3.80;;;;;;;;;;5010819;28;20041;-76
2022/01/19 03:47:39;;;;;;;5.53;4.20;;;;;;;;;;5027010;28;20037;-76
2022/01/19 03:50:05;;;;;;;5.05;3.60;;;;;;;;;;4998057;28;20488;-76
2022/01/19 03:52:31;;;;;;;5.15;3.45;;;;;;;;;;5029219;28;20045;-76
2022/01/19 03:54:56;;;;;;;5.05;3.40;;;;;;;;;;5016709;28;20037;-76
2022/01/19 03:57:22;;;;;;;4.93;3.95;;;;;;;;;;5046218;28;20037;-76
2022/01/19 03:59:47;;;;;;;5.60;4.00;;;;;;;;;;5030431;28;20041;-76
2022/01/19 04:02:12;;;;;;;4.22;3.08;;;;;;;;;;5013562;28;20052;-76
2022/01/19 04:09:32;;;;;;;4.93;3.42;;;;;;;;;;5029943;28;20140;-76
2022/01/19 04:11:58;;;;;;;4.85;3.38;;;;;;;;;;5012622;28;20395;-76
2022/01/19 04:14:26;;;;;;;4.43;3.10;;;;;;;;;;4994075;28;20049;-76
2022/01/19 04:16:52;;;;;;;4.10;3.45;;;;;;;;;;5041382;28;20125;-76
2022/01/19 04:19:26;;;;;;;4.13;3.00;;;;;;;;;;5013283;28;20076;-76
2022/01/19 04:21:51;;;;;;;7.20;3.05;;;;;;;;;;5018088;28;20490;-76
2022/01/19 04:24:17;;;;;;;4.63;3.10;;;;;;;;;;5000426;28;20108;-76
2022/01/19 04:26:44;;;;;;;4.18;3.08;;;;;;;;;;5016328;28;20380;-76
2022/01/19 04:29:09;;;;;;;4.70;2.88;;;;;;;;;;5033570;28;20053;-76
2022/01/19 04:31:35;;;;;;;4.45;3.22;;;;;;;;;;5017096;28;20422;-76
2022/01/19 04:34:04;;;;;;;4.28;3.08;;;;;;;;;;5033259;28;20518;-76
2022/01/19 04:36:58;;;;;;;3.53;2.65;;;;;;;;;;5001401;28;20037;-76
2022/01/19 05:01:36;;;;;;;3.50;2.20;;;;;;;;;;5041480;28;20034;-76
2022/01/19 05:06:13;;;;;;;3.88;2.25;;;;;;;;;;5018538;28;20106;-76
2022/01/19 05:14:03;;;;;;;3.97;2.22;;;;;;;;;;5032973;28;20462;-76
2022/01/19 05:16:28;;;;;;;3.15;1.85;;;;;;;;;;5032402;28;20061;-76
2022/01/19 05:18:54;;;;;;;3.70;2.25;;;;;;;;;;5016302;28;20051;-76
2022/01/19 05:21:19;;;;;;;2.90;2.38;;;;;;;;;;5032749;28;20029;-76
2022/01/19 05:23:45;;;;;;;2.92;1.90;;;;;;;;;;4999535;28;20361;-76
2022/01/19 05:26:11;;;;;;;3.28;2.08;;;;;;;;;;4999878;28;20431;-76
2022/01/19 05:28:36;;;;;;;3.10;1.90;;;;;;;;;;5015529;28;20387;-76
2022/01/19 05:31:02;;;;;;;3.00;1.83;;;;;;;;;;5011727;28;20403;-76
2022/01/19 05:33:27;;;;;;;3.45;2.20;;;;;;;;;;5007469;28;20052;-76
2022/01/19 05:35:53;;;;;;;3.80;1.90;;;;;;;;;;5032019;28;20029;-76
2022/01/19 05:38:18;;;;;;;3.30;1.90;;;;;;;;;;5015453;28;20284;-76
2022/01/19 05:40:44;;;;;;;2.88;1.90;;;;;;;;;;5032192;28;20073;-76
2022/01/19 05:43:10;;;;;;;3.22;1.67;;;;;;;;;;5016053;28;20068;-76
2022/01/19 05:45:35;;;;;;;2.88;1.80;;;;;;;;;;4999823;28;20388;-76
2022/01/19 05:48:01;;;;;;;2.60;2.08;;;;;;;;;;5015327;28;20037;-76
2022/01/19 05:50:27;;;;;;;2.83;1.80;;;;;;;;;;5015354;28;20081;-76
2022/01/19 05:52:52;;;;;;;3.70;2.10;;;;;;;;;;5047999;28;20041;-76
2022/01/19 05:55:18;;;;;;;3.20;2.10;;;;;;;;;;5048661;28;20040;-76
2022/01/19 05:57:43;;;;;;;5.00;1.85;;;;;;;;;;5024968;28;20053;-76
2022/01/19 06:00:09;;;;;;;3.05;1.80;;;;;;;;;;5015660;28;20453;-76
2022/01/19 06:02:35;;;;;;;2.58;1.50;;;;;;;;;;5015332;28;20038;-76
2022/01/19 06:05:01;;;;;;;2.22;1.20;;;;;;;;;;5031240;28;20068;-77
2022/01/19 06:07:29;;;;;;;2.30;1.50;;;;;;;;;;5006004;28;20116;-76
2022/01/19 06:10:06;;;;;;;3.00;1.73;;;;;;;;;;4996600;28;20034;-76
2022/01/19 06:12:32;;;;;;;2.40;1.58;;;;;;;;;;5000811;28;20034;-76
2022/01/19 06:14:58;;;;;;;3.30;1.73;;;;;;;;;;5028434;28;20156;-76
2022/01/19 06:17:24;;;;;;;2.75;1.60;;;;;;;;;;5028761;28;20455;-77
2022/01/19 06:19:49;;;;;;;3.92;1.98;;;;;;;;;;5042258;28;20068;-76
2022/01/19 06:22:17;;;;;;;5.53;1.75;;;;;;;;;;5014848;28;20446;-76
2022/01/19 06:24:43;;;;;;;6.03;1.85;;;;;;;;;;5014453;28;20037;-76
2022/01/19 06:27:08;;;;;;;5.30;2.17;;;;;;;;;;4998233;28;20033;-77
2022/01/19 06:29:34;;;;;;;4.57;2.92;;;;;;;;;;5031591;28;20083;-75
2022/01/19 06:32:00;;;;;;;38.35;27.15;;;;;;;;;;4998157;28;20069;-76
2022/01/19 06:34:25;;;;;;;27.17;18.50;;;;;;;;;;5035211;28;20025;-77
2022/01/19 06:36:52;;;;;;;30.15;20.10;;;;;;;;;;5047538;28;20374;-76
2022/01/19 06:39:19;;;;;;;29.73;17.75;;;;;;;;;;5047499;28;20038;-77
2022/01/19 06:41:44;;;;;;;25.65;17.13;;;;;;;;;;5043654;28;20041;-76
2022/01/19 06:44:12;;;;;;;23.23;16.75;;;;;;;;;;5026508;28;20036;-76
2022/01/19 06:46:37;;;;;;;24.48;15.15;;;;;;;;;;5015046;28;20036;-76
2022/01/19 06:49:03;;;;;;;23.67;15.18;;;;;;;;;;5014015;28;20116;-76
2022/01/19 06:51:28;;;;;;;23.15;15.05;;;;;;;;;;5047309;28;20848;-76
2022/01/19 06:53:53;;;;;;;19.77;14.13;;;;;;;;;;5046970;28;20037;-76
2022/01/19 06:56:19;;;;;;;25.10;13.93;;;;;;;;;;5047056;28;20055;-77
2022/01/19 06:58:44;;;;;;;18.05;14.20;;;;;;;;;;5030554;28;20059;-76
2022/01/19 07:01:10;;;;;;;18.13;12.55;;;;;;;;;;5040595;28;20053;-76
2022/01/19 07:03:35;;;;;;;18.83;12.63;;;;;;;;;;5040802;28;20034;-76
2022/01/19 07:06:01;;;;;;;18.38;12.15;;;;;;;;;;5013728;28;20037;-76
2022/01/19 07:08:27;;;;;;;18.45;11.85;;;;;;;;;;5014189;28;20029;-76
2022/01/19 07:10:53;;;;;;;16.02;11.10;;;;;;;;;;5014116;28;20037;-76
2022/01/19 07:13:19;;;;;;;16.55;11.23;;;;;;;;;;4997295;28;20052;-76
2022/01/19 07:15:45;;;;;;;15.30;10.75;;;;;;;;;;5014570;28;20507;-76
2022/01/19 07:18:11;;;;;;;22.27;11.90;;;;;;;;;;5011484;28;20045;-76
2022/01/19 07:20:36;;;;;;;18.15;9.98;;;;;;;;;;5027971;28;20514;-76
2022/01/19 07:23:02;;;;;;;16.95;10.02;;;;;;;;;;5014139;28;20434;-77
2022/01/19 07:25:28;;;;;;;13.35;9.15;;;;;;;;;;4997647;28;20369;-76
2022/01/19 07:27:53;;;;;;;15.77;8.93;;;;;;;;;;5030398;28;20029;-76
2022/01/19 07:30:19;;;;;;;15.00;9.82;;;;;;;;;;5030842;28;20044;-77
2022/01/19 07:32:48;;;;;;;16.63;8.75;;;;;;;;;;5046399;28;20033;-76
2022/01/19 07:35:14;;;;;;;18.52;9.80;;;;;;;;;;5000535;28;20164;-76
2022/01/19 07:37:40;;;;;;;13.75;8.15;;;;;;;;;;5043905;28;20034;-76
2022/01/19 07:40:06;;;;;;;14.90;8.02;;;;;;;;;;5014005;28;20109;-76
2022/01/19 07:42:31;;;;;;;15.05;7.95;;;;;;;;;;5038420;28;20471;-76
2022/01/19 07:44:57;;;;;;;18.67;8.98;;;;;;;;;;5031951;28;20133;-76
2022/01/19 07:47:22;;;;;;;14.60;7.63;;;;;;;;;;5031261;28;20033;-77
2022/01/19 07:49:48;;;;;;;11.07;6.90;;;;;;;;;;5030249;28;20391;-76
2022/01/19 07:52:13;;;;;;;12.05;6.13;;;;;;;;;;5035619;28;20040;-76
2022/01/19 07:54:38;;;;;;;12.52;6.80;;;;;;;;;;5033948;28;20383;-76
2022/01/19 07:57:04;;;;;;;11.70;6.20;;;;;;;;;;5037331;28;20094;-76
2022/01/19 07:59:31;;;;;;;10.38;5.80;;;;;;;;;;5002141;28;20022;-76
2022/01/19 08:01:56;;;;;;;9.45;5.70;;;;;;;;;;5018610;28;20052;-76
2022/01/19 08:04:22;;;;;;;8.07;5.78;;;;;;;;;;5033927;28;20491;-76
2022/01/19 08:06:53;;;;;;;9.90;5.50;;;;;;;;;;5017815;28;20033;-76
2022/01/19 08:09:20;;;;;;;10.68;5.47;;;;;;;;;;5033705;28;20056;-76
2022/01/19 08:11:45;;;;;;;13.25;5.93;;;;;;;;;;5033802;28;20021;-76
2022/01/19 08:14:11;;;;;;;8.77;6.15;;;;;;;;;;5027809;28;20028;-76
2022/01/19 08:16:36;;;;;;;10.25;5.00;;;;;;;;;;4997748;28;20034;-77
2022/01/19 08:19:02;;;;;;;11.88;5.88;;;;;;;;;;5014466;28;20104;-76
2022/01/19 08:21:27;;;;;;;7.82;4.53;;;;;;;;;;5028015;28;20435;-74
2022/01/19 08:23:53;;;;;;;7.40;4.15;;;;;;;;;;5029586;28;20443;-74
2022/01/19 08:26:18;;;;;;;9.10;4.45;;;;;;;;;;4987087;28;20824;-74
2022/01/19 08:28:44;;;;;;;15.27;5.03;;;;;;;;;;5030127;28;20487;-74
2022/01/19 08:31:09;;;;;;;10.60;4.15;;;;;;;;;;5014018;28;20037;-74
2022/01/19 08:33:35;;;;;;;8.93;4.45;;;;;;;;;;5022017;28;20395;-74
2022/01/19 08:36:00;;;;;;;8.43;4.75;;;;;;;;;;5033028;28;20029;-74
2022/01/19 08:38:26;;;;;;;7.20;3.63;;;;;;;;;;5049538;28;20041;-74
2022/01/19 08:40:51;;;;;;;8.23;4.15;;;;;;;;;;5013542;28;20034;-74
2022/01/19 08:43:17;;;;;;;10.50;4.22;;;;;;;;;;5029749;28;20095;-74
2022/01/19 08:45:42;;;;;;;8.85;3.83;;;;;;;;;;5017225;28;20127;-74
2022/01/19 08:48:08;;;;;;;8.85;4.38;;;;;;;;;;5013068;28;20045;-74
2022/01/19 08:50:34;;;;;;;6.47;3.95;;;;;;;;;;5029040;28;20815;-74
2022/01/19 08:53:00;;;;;;;6.13;3.63;;;;;;;;;;5011182;28;20042;-74
2022/01/19 08:55:25;;;;;;;9.05;3.67;;;;;;;;;;5016534;28;20037;-74
2022/01/19 08:57:51;;;;;;;9.13;3.63;;;;;;;;;;5016669;28;20506;-74
2022/01/19 09:00:17;;;;;;;7.53;3.85;;;;;;;;;;5016225;28;20029;-74
2022/01/19 09:02:42;;;;;;;6.05;3.88;;;;;;;;;;5031389;28;20037;-74
2022/01/19 09:05:08;;;;;;;6.22;3.42;;;;;;;;;;4999754;28;20030;-74
2022/01/19 09:07:34;;;;;;;5.32;3.35;;;;;;;;;;5032180;28;20042;-74
2022/01/19 09:09:59;;;;;;;7.68;3.63;;;;;;;;;;5032795;28;20112;-74
2022/01/19 09:12:25;;;;;;;6.80;3.22;;;;;;;;;;5032247;28;20037;-74
2022/01/19 09:14:50;;;;;;;6.05;3.40;;;;;;;;;;5014911;28;20045;-74
2022/01/19 09:17:16;;;;;;;6.00;3.40;;;;;;;;;;5048798;28;20083;-74
2022/01/19 09:19:41;;;;;;;7.57;4.20;;;;;;;;;;5031940;28;20041;-74
2022/01/19 09:22:07;;;;;;;7.68;4.40;;;;;;;;;;5048873;28;20483;-74
2022/01/19 09:24:34;;;;;;;12.18;4.32;;;;;;;;;;5032326;28;20112;-74
2022/01/19 09:27:00;;;;;;;13.40;6.40;;;;;;;;;;5015987;28;20118;-76
2022/01/19 09:29:26;;;;;;;25.90;16.65;;;;;;;;;;5032742;28;20033;-76
2022/01/19 09:31:54;;;;;;;21.08;13.15;;;;;;;;;;5031741;28;20033;-76
2022/01/19 09:34:21;;;;;;;19.10;12.18;;;;;;;;;;5059202;28;20072;-76
2022/01/19 09:36:47;;;;;;;17.08;11.60;;;;;;;;;;5012782;28;20033;-76
2022/01/19 09:39:20;;;;;;;18.10;10.02;;;;;;;;;;5028991;28;20030;-77
2022/01/19 09:41:46;;;;;;;18.92;10.68;;;;;;;;;;5012547;28;20479;-76
2022/01/19 09:44:12;;;;;;;18.90;10.60;;;;;;;;;;5012757;28;20037;-76
2022/01/19 09:46:37;;;;;;;14.85;9.32;;;;;;;;;;5028980;28;20030;-77
2022/01/19 09:49:05;;;;;;;19.30;10.90;;;;;;;;;;4999437;28;20052;-76
2022/01/19 09:51:31;;;;;;;15.65;9.80;;;;;;;;;;5015728;28;20037;-76
2022/01/19 09:53:56;;;;;;;105.82;86.45;;;;;;;;;;5015645;28;20029;-76
2022/01/19 09:56:22;;;;;;;60.17;46.20;;;;;;;;;;5014476;28;20033;-76
2022/01/19 09:58:47;;;;;;;56.33;41.28;;;;;;;;;;5031713;28;20036;-76
2022/01/19 10:01:20;;;;;;;58.90;42.25;;;;;;;;;;5015499;28;20035;-77
2022/01/19 10:03:45;;;;;;;;;;;;;;;;;;5015559;28;20029;-76
2022/01/19 10:06:15;;;;;;;48.85;36.67;;;;;;;;;;5048760;28;19979;-76
2022/01/19 10:08:52;;;;;;;44.20;33.38;;;;;;;;;;5031163;28;20490;-76
2022/01/19 10:17:06;;;;;;;38.03;29.80;;;;;;;;;;5019884;28;20368;-76
2022/01/19 10:19:34;;;;;;;42.42;29.83;;;;;;;;;;5014743;28;20026;-76
2022/01/19 10:22:03;;;;;;;35.97;28.88;;;;;;;;;;5047962;28;20044;-76
2022/01/19 10:24:47;;;;;;;34.70;27.38;;;;;;;;;;5046888;28;20039;-76
2022/01/19 10:27:40;;;;;;;38.40;27.05;;;;;;;;;;5031339;28;20044;-76
2022/01/19 10:30:05;;;;;;;35.20;26.33;;;;;;;;;;5015549;28;20033;-76
2022/01/19 10:32:52;;;;;;;33.92;25.27;;;;;;;;;;5032168;28;20040;-76
2022/01/19 10:35:29;;;;;;;35.53;25.23;;;;;;;;;;5031942;28;20052;-76
2022/01/19 10:38:26;;;;;;;35.03;23.33;;;;;;;;;;5029611;28;20061;-76
2022/01/19 10:40:58;;;;;;;33.67;22.63;;;;;;;;;;5030913;28;20463;-76
2022/01/19 10:43:42;;;;;;;30.55;22.05;;;;;;;;;;5022314;28;20033;-76
2022/01/19 10:46:27;;;;;;;33.08;22.45;;;;;;;;;;5033325;28;20059;-76
2022/01/19 10:49:09;;;;;;;31.65;22.27;;;;;;;;;;5030944;28;20041;-76
2022/01/19 10:51:37;;;;;;;28.42;20.85;;;;;;;;;;5026852;28;20037;-76
2022/01/19 10:54:08;;;;;;;49.85;33.15;;;;;;;;;;5014289;28;20037;-77
2022/01/19 10:56:35;;;;;;;73.63;40.78;;;;;;;;;;5012902;28;20508;-76
2022/01/19 10:59:06;;;;;;;53.45;32.35;;;;;;;;;;5013598;28;20038;-76
2022/01/19 11:01:41;;;;;;;51.80;31.70;;;;;;;;;;5035865;28;20029;-76
2022/01/19 11:04:19;;;;;;;50.85;28.13;;;;;;;;;;5010073;28;20495;-76
2022/01/19 11:06:45;;;;;;;41.53;24.50;;;;;;;;;;5030020;28;20033;-76
2022/01/19 11:09:14;;;;;;;39.95;23.73;;;;;;;;;;5045445;28;20496;-76
2022/01/19 11:11:44;;;;;;;38.53;23.80;;;;;;;;;;5044892;28;20083;-76
2022/01/19 11:14:13;;;;;;;38.88;22.10;;;;;;;;;;5014432;28;20037;-77
2022/01/19 11:16:39;;;;;;;35.35;20.65;;;;;;;;;;5043499;28;20037;-76
2022/01/19 11:19:04;;;;;;;35.17;22.58;;;;;;;;;;5013288;28;20147;-76
2022/01/19 11:21:30;;;;;;;32.50;20.60;;;;;;;;;;5013597;28;20384;-76
2022/01/19 11:24:34;;;;;;;32.55;21.02;;;;;;;;;;5013508;28;20033;-76
2022/01/19 11:27:00;;;;;;;29.75;19.70;;;;;;;;;;5051642;28;20060;-77
2022/01/19 11:29:25;;;;;;;26.50;18.30;;;;;;;;;;5046304;28;20044;-77
2022/01/19 11:31:53;;;;;;;31.10;16.95;;;;;;;;;;5030347;28;20491;-76
2022/01/19 11:34:48;;;;;;;26.95;16.55;;;;;;;;;;5040708;28;20033;-76
2022/01/19 11:37:49;;;;;;;21.50;15.00;;;;;;;;;;5055200;28;20026;-76
2022/01/19 11:40:16;;;;;;;26.80;15.45;;;;;;;;;;5021645;28;20100;-77
2022/01/19 11:42:41;;;;;;;23.05;15.00;;;;;;;;;;5041877;28;20419;-76
2022/01/19 11:45:08;;;;;;;26.90;15.00;;;;;;;;;;5046784;28;20087;-77
2022/01/19 11:47:34;;;;;;;22.35;13.48;;;;;;;;;;5013724;28;20025;-76
2022/01/19 11:50:00;;;;;;;22.65;13.50;;;;;;;;;;5046759;28;20049;-76
2022/01/19 11:52:33;;;;;;;18.88;12.30;;;;;;;;;;5062334;28;20499;-77
2022/01/19 11:55:21;;;;;;;18.48;12.23;;;;;;;;;;5027821;28;20029;-76
2022/01/19 11:57:49;;;;;;;20.63;11.88;;;;;;;;;;5014931;28;20082;-76
2022/01/19 12:00:15;;;;;;;28.05;14.38;;;;;;;;;;5013301;28;20494;-76
2022/01/19 12:02:54;;;;;;;17.30;11.30;;;;;;;;;;5062939;28;20057;-76
2022/01/19 12:05:22;;;;;;;21.70;13.07;;;;;;;;;;5030298;28;20041;-76
2022/01/19 12:07:55;;;;;;;24.50;12.40;;;;;;;;;;5030008;28;20064;-76
2022/01/19 12:10:38;;;;;;;19.33;10.82;;;;;;;;;;5029850;28;20488;-76
2022/01/19 12:19:07;;;;;;;16.65;11.45;;;;;;;;;;5022365;28;20049;-76
2022/01/19 12:21:32;;;;;;;21.45;12.45;;;;;;;;;;5056383;28;20487;-76
2022/01/19 12:24:16;;;;;;;24.73;12.50;;;;;;;;;;5029609;28;20040;-76
2022/01/19 12:27:06;;;;;;;19.77;10.18;;;;;;;;;;5031048;28;20033;-76
2022/01/19 12:29:38;;;;;;;15.48;9.60;;;;;;;;;;5029568;28;20030;-76
2022/01/19 12:32:15;;;;;;;16.98;9.02;;;;;;;;;;5010147;28;20064;-76
2022/01/19 12:34:47;;;;;;;16.45;9.40;;;;;;;;;;5020680;28;20104;-76
2022/01/19 12:37:40;;;;;;;16.75;9.10;;;;;;;;;;5029470;28;20068;-76
2022/01/19 12:40:17;;;;;;;15.30;8.18;;;;;;;;;;5027247;28;20042;-76
2022/01/19 12:42:49;;;;;;;15.77;8.95;;;;;;;;;;5032537;28;20057;-76
2022/01/19 12:45:45;;;;;;;14.43;7.72;;;;;;;;;;5017306;28;20036;-76
2022/01/19 12:48:12;;;;;;;17.73;8.65;;;;;;;;;;5018049;28;20377;-76
2022/01/19 12:50:45;;;;;;;15.75;8.05;;;;;;;;;;5019735;28;20391;-76
2022/01/19 12:53:24;;;;;;;17.02;7.63;;;;;;;;;;5016363;28;20065;-76
2022/01/19 12:55:52;;;;;;;14.75;8.02;;;;;;;;;;5033244;28;20029;-76
2022/01/19 12:58:29;;;;;;;13.40;7.28;;;;;;;;;;5032907;28;20369;-76
2022/01/19 13:00:57;;;;;;;14.00;6.55;;;;;;;;;;5016641;28;20040;-76
2022/01/19 13:03:24;;;;;;;13.93;7.35;;;;;;;;;;5016428;28;20071;-76
2022/01/19 13:05:55;;;;;;;11.85;7.18;;;;;;;;;;5066329;28;20415;-76
2022/01/19 13:08:29;;;;;;;15.32;6.85;;;;;;;;;;5048964;28;20033;-76
2022/01/19 13:11:01;;;;;;;11.82;6.90;;;;;;;;;;5049520;28;20029;-76
2022/01/19 13:13:28;;;;;;;15.68;6.82;;;;;;;;;;5032771;28;20037;-76
2022/01/19 13:15:58;;;;;;;12.13;6.97;;;;;;;;;;5048102;28;20029;-76
2022/01/19 13:18:38;;;;;;;10.98;6.65;;;;;;;;;;5032587;28;20484;-76
2022/01/19 13:21:13;;;;;;;12.13;6.28;;;;;;;;;;5000925;28;20099;-77
2022/01/19 13:24:08;;;;;;;13.18;5.85;;;;;;;;;;5030333;28;20064;-76
2022/01/19 13:26:54;;;;;;;12.77;6.22;;;;;;;;;;4996802;28;20377;-76
2022/01/19 13:29:31;;;;;;;10.23;5.90;;;;;;;;;;5023803;28;20442;-76
2022/01/19 13:31:59;;;;;;;12.50;6.18;;;;;;;;;;5044948;28;20076;-76
2022/01/19 13:34:25;;;;;;;9.98;5.25;;;;;;;;;;5035554;28;20033;-77
2022/01/19 13:36:59;;;;;;;8.77;5.13;;;;;;;;;;5048734;28;20026;-77
2022/01/19 13:39:25;;;;;;;16.20;6.25;;;;;;;;;;5016638;28;20033;-76
2022/01/19 13:41:52;;;;;;;10.55;5.93;;;;;;;;;;5032617;28;20025;-76
2022/01/19 13:44:25;;;;;;;10.27;5.28;;;;;;;;;;5015711;28;20038;-76
2022/01/19 13:47:02;;;;;;;9.98;5.40;;;;;;;;;;5032046;28;20029;-76
2022/01/19 13:49:27;;;;;;;10.45;5.25;;;;;;;;;;5030842;28;20033;-76
2022/01/19 13:51:53;;;;;;;20.90;7.25;;;;;;;;;;5047889;28;20091;-76
2022/01/19 13:54:18;;;;;;;10.73;4.60;;;;;;;;;;5031090;28;20080;-76
2022/01/19 13:56:43;;;;;;;9.32;5.18;;;;;;;;;;5048362;28;20434;-76
2022/01/19 13:59:17;;;;;;;9.30;5.47;;;;;;;;;;5015043;28;20053;-76
2022/01/19 14:02:00;;;;;;;12.23;5.95;;;;;;;;;;5015321;28;20124;-76
2022/01/19 14:04:33;;;;;;;8.77;4.57;;;;;;;;;;5031919;28;20041;-76
2022/01/19 14:07:17;;;;;;;12.15;5.50;;;;;;;;;;5047020;28;20091;-76
2022/01/19 14:09:43;;;;;;;10.27;5.40;;;;;;;;;;5015117;28;20033;-76
2022/01/19 14:12:11;;;;;;;10.88;5.32;;;;;;;;;;5014936;28;20029;-76
2022/01/19 14:14:39;;;;;;;8.40;5.13;;;;;;;;;;5015443;28;20098;-76
2022/01/19 14:17:05;;;;;;;10.80;5.25;;;;;;;;;;5031158;28;20610;-76
2022/01/19 14:19:32;;;;;;;11.93;5.18;;;;;;;;;;5047832;28;20092;-76
2022/01/19 14:22:06;;;;;;;10.77;5.82;;;;;;;;;;5014589;28;20022;-77
2022/01/19 14:24:41;;;;;;;9.40;5.00;;;;;;;;;;5031176;28;20059;-76
2022/01/19 14:27:11;;;;;;;9.63;4.82;;;;;;;;;;5032027;28;20084;-76
2022/01/19 14:29:36;;;;;;;13.57;4.80;;;;;;;;;;5047367;28;20502;-76
2022/01/19 14:32:02;;;;;;;12.88;5.78;;;;;;;;;;5014694;28;20037;-76
2022/01/19 14:34:36;;;;;;;9.40;4.65;;;;;;;;;;4994773;28;20030;-76
2022/01/19 14:37:13;;;;;;;9.70;5.45;;;;;;;;;;5011204;28;20030;-76
2022/01/19 14:39:50;;;;;;;9.38;4.10;;;;;;;;;;5011569;28;20045;-76
2022/01/19 14:42:17;;;;;;;12.13;4.68;;;;;;;;;;4994933;28;20186;-76
2022/01/19 14:44:47;;;;;;;10.35;5.53;;;;;;;;;;4998952;28;20488;-76
2022/01/19 14:47:37;;;;;;;8.63;4.75;;;;;;;;;;5030095;28;20087;-76
2022/01/19 14:50:26;;;;;;;15.98;4.50;;;;;;;;;;5027759;28;20046;-76
2022/01/19 14:52:53;;;;;;;8.18;4.28;;;;;;;;;;5026307;28;20033;-77
2022/01/19 14:55:21;;;;;;;8.00;4.10;;;;;;;;;;5030364;28;20033;-76
2022/01/19 14:57:47;;;;;;;7.97;3.80;;;;;;;;;;5030556;28;20033;-76
2022/01/19 15:00:14;;;;;;;8.38;4.45;;;;;;;;;;5010966;28;20060;-76
2022/01/19 15:02:39;;;;;;;11.07;4.55;;;;;;;;;;4997763;28;20034;-76
2022/01/19 15:05:05;;;;;;;10.30;4.32;;;;;;;;;;5020714;28;20036;-76
2022/01/19 15:07:30;;;;;;;8.35;3.58;;;;;;;;;;5015951;28;20037;-76
2022/01/19 15:09:55;;;;;;;7.70;4.00;;;;;;;;;;5030658;28;20112;-76
2022/01/19 15:12:21;;;;;;;8.38;4.45;;;;;;;;;;5047153;28;20029;-76
2022/01/19 15:14:46;;;;;;;9.95;4.32;;;;;;;;;;5014057;28;20033;-76
2022/01/19 15:17:12;;;;;;;8.25;4.50;;;;;;;;;;5030480;28;20033;-76
2022/01/19 15:19:37;;;;;;;8.43;4.32;;;;;;;;;;5013824;28;20483;-76
2022/01/19 15:22:03;;;;;;;10.45;5.10;;;;;;;;;;5010727;28;20030;-76
2022/01/19 15:24:29;;;;;;;8.18;4.00;;;;;;;;;;5027339;28;20426;-76
2022/01/19 15:26:54;;;;;;;10.00;4.32;;;;;;;;;;5010858;28;20034;-76
2022/01/19 15:29:19;;;;;;;10.27;4.50;;;;;;;;;;5026867;28;20046;-76
2022/01/19 15:31:49;;;;;;;11.23;5.00;;;;;;;;;;5041408;28;20041;-76
2022/01/19 15:34:16;;;;;;;10.60;4.60;;;;;;;;;;5029969;28;20033;-76
2022/01/19 15:36:41;;;;;;;9.32;4.45;;;;;;;;;;5013946;28;20091;-76
2022/01/19 15:39:08;;;;;;;9.90;4.28;;;;;;;;;;5010071;28;20046;-76
2022/01/19 15:41:36;;;;;;;10.27;4.78;;;;;;;;;;4994838;28;20038;-76
2022/01/19 15:44:01;;;;;;;8.18;4.03;;;;;;;;;;5012158;28;20075;-76
2022/01/19 15:46:26;;;;;;;7.60;3.95;;;;;;;;;;5046885;28;20414;-76
2022/01/19 15:48:52;;;;;;;6.93;4.55;;;;;;;;;;5013402;28;20088;-77
2022/01/19 15:51:17;;;;;;;10.48;5.13;;;;;;;;;;5022433;28;20049;-77
2022/01/19 15:53:43;;;;;;;10.35;4.03;;;;;;;;;;4993867;28;20057;-76
2022/01/19 15:56:08;;;;;;;8.00;4.35;;;;;;;;;;4993128;28;20392;-76
2022/01/19 15:58:33;;;;;;;9.10;5.32;;;;;;;;;;4990710;28;20501;-77
2022/01/19 16:00:59;;;;;;;8.70;5.07;;;;;;;;;;4992437;28;20050;-77
2022/01/19 16:03:24;;;;;;;8.82;4.05;;;;;;;;;;4993305;28;20037;-76
2022/01/19 16:05:51;;;;;;;8.63;4.40;;;;;;;;;;4993766;28;20038;-76
2022/01/19 16:08:17;;;;;;;7.35;3.80;;;;;;;;;;5026457;28;20037;-76
2022/01/19 16:10:42;;;;;;;10.23;4.47;;;;;;;;;;5026288;28;20392;-78
2022/01/19 16:13:08;;;;;;;9.30;4.50;;;;;;;;;;4994231;28;20183;-78